sensor_id;sensor_type;location;lat;lon;timestamp;temperature;humidity
70557;DHT22;58107;51.034;3.726;2022-07-11T00:00:16;20.70;67.10
70557;DHT22;58107;51.034;3.726;2022-07-11T00:02:43;20.60;67.70
70557;DHT22;58107;51.034;3.726;2022-07-11T00:05:11;20.60;67.90
70557;DHT22;58107;51.034;3.726;2022-07-11T00:07:39;20.60;68.00
70557;DHT22;58107;51.034;3.726;2022-07-11T00:10:07;20.60;68.40
70557;DHT22;58107;51.034;3.726;2022-07-11T00:12:35;20.50;68.80
70557;DHT22;58107;51.034;3.726;2022-07-11T00:15:03;20.40;69.80
70557;DHT22;58107;51.034;3.726;2022-07-11T00:17:31;20.40;69.10
70557;DHT22;58107;51.034;3.726;2022-07-11T00:19:59;20.40;69.30
70557;DHT22;58107;51.034;3.726;2022-07-11T00:22:26;20.40;69.70
70557;DHT22;58107;51.034;3.726;2022-07-11T00:24:54;20.40;70.10
70557;DHT22;58107;51.034;3.726;2022-07-11T00:27:29;20.40;70.10
70557;DHT22;58107;51.034;3.726;2022-07-11T00:29:57;20.40;69.90
70557;DHT22;58107;51.034;3.726;2022-07-11T00:32:24;20.40;69.90
70557;DHT22;58107;51.034;3.726;2022-07-11T00:34:52;20.50;70.00
70557;DHT22;58107;51.034;3.726;2022-07-11T00:37:20;20.40;69.90
70557;DHT22;58107;51.034;3.726;2022-07-11T00:39:48;20.50;70.90
70557;DHT22;58107;51.034;3.726;2022-07-11T00:42:18;20.40;70.20
70557;DHT22;58107;51.034;3.726;2022-07-11T00:44:46;20.30;70.50
70557;DHT22;58107;51.034;3.726;2022-07-11T00:47:14;20.30;71.00
70557;DHT22;58107;51.034;3.726;2022-07-11T00:49:41;20.20;71.40
70557;DHT22;58107;51.034;3.726;2022-07-11T00:52:10;20.20;71.60
70557;DHT22;58107;51.034;3.726;2022-07-11T00:54:38;20.10;71.50
70557;DHT22;58107;51.034;3.726;2022-07-11T00:57:06;20.00;71.90
70557;DHT22;58107;51.034;3.726;2022-07-11T00:59:34;19.90;72.60
70557;DHT22;58107;51.034;3.726;2022-07-11T01:02:02;19.90;72.80
70557;DHT22;58107;51.034;3.726;2022-07-11T01:04:31;19.90;72.70
70557;DHT22;58107;51.034;3.726;2022-07-11T01:06:59;19.90;72.70
70557;DHT22;58107;51.034;3.726;2022-07-11T01:09:26;19.90;72.60
70557;DHT22;58107;51.034;3.726;2022-07-11T01:11:54;19.80;72.40
70557;DHT22;58107;51.034;3.726;2022-07-11T01:14:22;19.80;72.60
70557;DHT22;58107;51.034;3.726;2022-07-11T01:16:50;19.90;72.80
70557;DHT22;58107;51.034;3.726;2022-07-11T01:19:17;19.90;73.00
70557;DHT22;58107;51.034;3.726;2022-07-11T01:21:51;19.90;72.80
70557;DHT22;58107;51.034;3.726;2022-07-11T01:24:16;19.90;72.60
70557;DHT22;58107;51.034;3.726;2022-07-11T01:26:44;19.90;72.40
70557;DHT22;58107;51.034;3.726;2022-07-11T01:29:13;20.00;72.40
70557;DHT22;58107;51.034;3.726;2022-07-11T01:31:42;20.10;73.20
70557;DHT22;58107;51.034;3.726;2022-07-11T01:34:10;20.10;72.70
70557;DHT22;58107;51.034;3.726;2022-07-11T01:36:39;20.10;72.40
70557;DHT22;58107;51.034;3.726;2022-07-11T01:39:06;20.20;72.30
70557;DHT22;58107;51.034;3.726;2022-07-11T01:41:34;20.10;72.10
70557;DHT22;58107;51.034;3.726;2022-07-11T01:44:02;20.20;72.10
70557;DHT22;58107;51.034;3.726;2022-07-11T01:46:30;20.20;72.30
70557;DHT22;58107;51.034;3.726;2022-07-11T01:48:57;20.20;72.10
70557;DHT22;58107;51.034;3.726;2022-07-11T01:51:26;20.20;72.10
70557;DHT22;58107;51.034;3.726;2022-07-11T01:53:55;20.10;72.30
70557;DHT22;58107;51.034;3.726;2022-07-11T01:56:23;20.10;72.10
70557;DHT22;58107;51.034;3.726;2022-07-11T01:58:52;19.80;73.00
70557;DHT22;58107;51.034;3.726;2022-07-11T02:01:20;19.60;73.90
70557;DHT22;58107;51.034;3.726;2022-07-11T02:03:48;19.60;74.40
70557;DHT22;58107;51.034;3.726;2022-07-11T02:06:15;19.50;74.70
70557;DHT22;58107;51.034;3.726;2022-07-11T02:08:43;19.50;74.90
70557;DHT22;58107;51.034;3.726;2022-07-11T02:11:11;19.50;74.90
70557;DHT22;58107;51.034;3.726;2022-07-11T02:13:39;19.70;74.40
70557;DHT22;58107;51.034;3.726;2022-07-11T02:16:07;19.70;74.00
70557;DHT22;58107;51.034;3.726;2022-07-11T02:18:34;19.80;73.90
70557;DHT22;58107;51.034;3.726;2022-07-11T02:21:02;19.90;74.80
70557;DHT22;58107;51.034;3.726;2022-07-11T02:23:30;19.90;73.40
70557;DHT22;58107;51.034;3.726;2022-07-11T02:25:58;19.90;73.40
70557;DHT22;58107;51.034;3.726;2022-07-11T02:28:25;19.60;74.30
70557;DHT22;58107;51.034;3.726;2022-07-11T02:30:53;19.50;75.10
70557;DHT22;58107;51.034;3.726;2022-07-11T02:33:21;19.50;75.30
70557;DHT22;58107;51.034;3.726;2022-07-11T02:35:48;19.50;75.30
70557;DHT22;58107;51.034;3.726;2022-07-11T02:38:17;19.50;75.00
70557;DHT22;58107;51.034;3.726;2022-07-11T02:40:44;19.40;75.20
70557;DHT22;58107;51.034;3.726;2022-07-11T02:43:13;19.40;75.50
70557;DHT22;58107;51.034;3.726;2022-07-11T02:45:42;19.40;75.70
70557;DHT22;58107;51.034;3.726;2022-07-11T02:48:10;19.30;75.90
70557;DHT22;58107;51.034;3.726;2022-07-11T02:50:38;19.30;76.50
70557;DHT22;58107;51.034;3.726;2022-07-11T02:53:05;19.30;75.70
70557;DHT22;58107;51.034;3.726;2022-07-11T02:55:33;19.30;75.90
70557;DHT22;58107;51.034;3.726;2022-07-11T02:58:00;19.10;77.30
70557;DHT22;58107;51.034;3.726;2022-07-11T03:00:28;19.10;76.60
70557;DHT22;58107;51.034;3.726;2022-07-11T03:02:56;19.00;76.80
70557;DHT22;58107;51.034;3.726;2022-07-11T03:05:24;19.00;76.90
70557;DHT22;58107;51.034;3.726;2022-07-11T03:07:52;19.00;77.10
70557;DHT22;58107;51.034;3.726;2022-07-11T03:10:19;18.90;77.60
70557;DHT22;58107;51.034;3.726;2022-07-11T03:12:49;18.80;78.00
70557;DHT22;58107;51.034;3.726;2022-07-11T03:15:17;18.80;78.10
70557;DHT22;58107;51.034;3.726;2022-07-11T03:17:44;18.80;78.10
70557;DHT22;58107;51.034;3.726;2022-07-11T03:20:13;18.80;77.70
70557;DHT22;58107;51.034;3.726;2022-07-11T03:22:41;18.90;77.40
70557;DHT22;58107;51.034;3.726;2022-07-11T03:25:09;19.00;76.80
70557;DHT22;58107;51.034;3.726;2022-07-11T03:27:36;19.00;76.80
70557;DHT22;58107;51.034;3.726;2022-07-11T03:30:05;19.00;76.80
70557;DHT22;58107;51.034;3.726;2022-07-11T03:32:53;19.00;76.70
70557;DHT22;58107;51.034;3.726;2022-07-11T03:35:20;19.10;76.40
70557;DHT22;58107;51.034;3.726;2022-07-11T03:38:06;19.40;74.90
70557;DHT22;58107;51.034;3.726;2022-07-11T03:40:37;19.60;73.80
70557;DHT22;58107;51.034;3.726;2022-07-11T03:43:05;19.60;73.20
70557;DHT22;58107;51.034;3.726;2022-07-11T03:45:33;19.70;73.00
70557;DHT22;58107;51.034;3.726;2022-07-11T03:48:01;19.70;72.90
70557;DHT22;58107;51.034;3.726;2022-07-11T03:50:29;19.80;72.50
70557;DHT22;58107;51.034;3.726;2022-07-11T03:52:57;19.70;72.80
70557;DHT22;58107;51.034;3.726;2022-07-11T03:55:25;19.70;73.10
70557;DHT22;58107;51.034;3.726;2022-07-11T03:57:53;19.70;72.90
70557;DHT22;58107;51.034;3.726;2022-07-11T04:00:20;19.60;73.00
70557;DHT22;58107;51.034;3.726;2022-07-11T04:02:48;19.60;72.70
70557;DHT22;58107;51.034;3.726;2022-07-11T04:05:17;19.60;73.00
70557;DHT22;58107;51.034;3.726;2022-07-11T04:07:44;19.40;74.30
70557;DHT22;58107;51.034;3.726;2022-07-11T04:10:12;19.40;74.70
70557;DHT22;58107;51.034;3.726;2022-07-11T04:12:40;19.40;74.30
70557;DHT22;58107;51.034;3.726;2022-07-11T04:15:09;19.30;75.00
70557;DHT22;58107;51.034;3.726;2022-07-11T04:17:37;19.30;75.50
70557;DHT22;58107;51.034;3.726;2022-07-11T04:20:05;19.40;75.00
70557;DHT22;58107;51.034;3.726;2022-07-11T04:22:33;19.40;75.20
70557;DHT22;58107;51.034;3.726;2022-07-11T04:25:01;19.50;74.70
70557;DHT22;58107;51.034;3.726;2022-07-11T04:27:28;19.50;74.70
70557;DHT22;58107;51.034;3.726;2022-07-11T04:29:56;19.40;74.70
70557;DHT22;58107;51.034;3.726;2022-07-11T04:32:24;19.40;74.80
70557;DHT22;58107;51.034;3.726;2022-07-11T04:34:51;19.30;75.20
70557;DHT22;58107;51.034;3.726;2022-07-11T04:37:20;19.10;75.80
70557;DHT22;58107;51.034;3.726;2022-07-11T04:39:48;19.00;76.30
70557;DHT22;58107;51.034;3.726;2022-07-11T04:42:15;18.90;77.00
70557;DHT22;58107;51.034;3.726;2022-07-11T04:44:43;18.90;77.50
70557;DHT22;58107;51.034;3.726;2022-07-11T04:47:10;18.90;77.30
70557;DHT22;58107;51.034;3.726;2022-07-11T04:49:38;19.00;77.00
70557;DHT22;58107;51.034;3.726;2022-07-11T04:52:06;19.10;76.60
70557;DHT22;58107;51.034;3.726;2022-07-11T04:54:34;19.00;76.60
70557;DHT22;58107;51.034;3.726;2022-07-11T04:57:02;19.00;77.00
70557;DHT22;58107;51.034;3.726;2022-07-11T04:59:29;18.90;77.10
70557;DHT22;58107;51.034;3.726;2022-07-11T05:01:57;18.90;77.40
70557;DHT22;58107;51.034;3.726;2022-07-11T05:04:25;18.90;77.40
70557;DHT22;58107;51.034;3.726;2022-07-11T05:06:53;19.00;77.40
70557;DHT22;58107;51.034;3.726;2022-07-11T05:09:20;19.10;76.60
70557;DHT22;58107;51.034;3.726;2022-07-11T05:11:48;19.20;76.10
70557;DHT22;58107;51.034;3.726;2022-07-11T05:14:15;19.30;75.90
70557;DHT22;58107;51.034;3.726;2022-07-11T05:16:43;19.40;76.20
70557;DHT22;58107;51.034;3.726;2022-07-11T05:19:11;19.80;76.10
70557;DHT22;58107;51.034;3.726;2022-07-11T05:21:38;19.90;75.50
70557;DHT22;58107;51.034;3.726;2022-07-11T05:24:06;19.90;76.10
70557;DHT22;58107;51.034;3.726;2022-07-11T05:26:34;19.70;77.00
70557;DHT22;58107;51.034;3.726;2022-07-11T05:29:02;19.60;77.90
70557;DHT22;58107;51.034;3.726;2022-07-11T05:31:30;19.50;79.10
70557;DHT22;58107;51.034;3.726;2022-07-11T05:33:59;19.30;80.50
70557;DHT22;58107;51.034;3.726;2022-07-11T05:36:27;19.10;82.00
70557;DHT22;58107;51.034;3.726;2022-07-11T05:38:54;19.10;82.30
70557;DHT22;58107;51.034;3.726;2022-07-11T05:41:22;19.10;82.50
70557;DHT22;58107;51.034;3.726;2022-07-11T05:43:51;19.10;82.40
70557;DHT22;58107;51.034;3.726;2022-07-11T05:46:18;19.30;82.10
70557;DHT22;58107;51.034;3.726;2022-07-11T05:48:46;19.30;81.70
70557;DHT22;58107;51.034;3.726;2022-07-11T05:51:14;19.40;82.20
70557;DHT22;58107;51.034;3.726;2022-07-11T05:53:43;19.50;81.70
70557;DHT22;58107;51.034;3.726;2022-07-11T05:56:10;19.40;82.10
70557;DHT22;58107;51.034;3.726;2022-07-11T05:58:38;19.40;82.30
70557;DHT22;58107;51.034;3.726;2022-07-11T06:01:05;19.40;82.80
70557;DHT22;58107;51.034;3.726;2022-07-11T06:03:35;19.40;83.10
70557;DHT22;58107;51.034;3.726;2022-07-11T06:06:02;19.40;83.30
70557;DHT22;58107;51.034;3.726;2022-07-11T06:08:31;19.40;83.50
70557;DHT22;58107;51.034;3.726;2022-07-11T06:11:15;19.50;82.70
70557;DHT22;58107;51.034;3.726;2022-07-11T06:13:43;19.60;82.20
70557;DHT22;58107;51.034;3.726;2022-07-11T06:16:12;19.60;82.00
70557;DHT22;58107;51.034;3.726;2022-07-11T06:18:39;19.60;82.00
70557;DHT22;58107;51.034;3.726;2022-07-11T06:21:07;19.80;81.90
70557;DHT22;58107;51.034;3.726;2022-07-11T06:23:35;20.10;80.40
70557;DHT22;58107;51.034;3.726;2022-07-11T06:26:04;20.20;79.40
70557;DHT22;58107;51.034;3.726;2022-07-11T06:28:32;20.40;78.40
70557;DHT22;58107;51.034;3.726;2022-07-11T06:31:00;20.30;78.80
70557;DHT22;58107;51.034;3.726;2022-07-11T06:33:28;20.60;78.40
70557;DHT22;58107;51.034;3.726;2022-07-11T06:35:56;21.00;75.70
70557;DHT22;58107;51.034;3.726;2022-07-11T06:38:24;20.90;75.30
70557;DHT22;58107;51.034;3.726;2022-07-11T06:40:51;21.20;75.10
70557;DHT22;58107;51.034;3.726;2022-07-11T06:43:20;21.50;73.50
70557;DHT22;58107;51.034;3.726;2022-07-11T06:45:50;21.80;71.90
70557;DHT22;58107;51.034;3.726;2022-07-11T06:48:17;22.00;70.70
70557;DHT22;58107;51.034;3.726;2022-07-11T06:50:46;22.40;69.30
70557;DHT22;58107;51.034;3.726;2022-07-11T06:53:13;22.60;68.70
70557;DHT22;58107;51.034;3.726;2022-07-11T06:55:41;22.70;67.00
70557;DHT22;58107;51.034;3.726;2022-07-11T06:58:09;22.80;66.70
70557;DHT22;58107;51.034;3.726;2022-07-11T07:00:36;22.70;67.40
70557;DHT22;58107;51.034;3.726;2022-07-11T07:03:04;22.90;65.80
70557;DHT22;58107;51.034;3.726;2022-07-11T07:05:32;23.30;64.50
70557;DHT22;58107;51.034;3.726;2022-07-11T07:07:59;23.50;63.50
70557;DHT22;58107;51.034;3.726;2022-07-11T07:10:27;23.50;62.60
70557;DHT22;58107;51.034;3.726;2022-07-11T07:12:55;23.80;62.20
70557;DHT22;58107;51.034;3.726;2022-07-11T07:15:25;23.80;62.40
70557;DHT22;58107;51.034;3.726;2022-07-11T07:17:53;23.20;63.70
70557;DHT22;58107;51.034;3.726;2022-07-11T07:20:21;23.60;62.20
70557;DHT22;58107;51.034;3.726;2022-07-11T07:22:48;24.10;60.40
70557;DHT22;58107;51.034;3.726;2022-07-11T07:25:16;24.30;59.90
70557;DHT22;58107;51.034;3.726;2022-07-11T07:27:44;24.40;58.90
70557;DHT22;58107;51.034;3.726;2022-07-11T07:30:11;24.70;58.10
70557;DHT22;58107;51.034;3.726;2022-07-11T07:32:39;24.70;57.80
70557;DHT22;58107;51.034;3.726;2022-07-11T07:37:55;25.10;56.50
70557;DHT22;58107;51.034;3.726;2022-07-11T07:40:42;24.90;56.00
70557;DHT22;58107;51.034;3.726;2022-07-11T07:43:10;25.10;55.00
70557;DHT22;58107;51.034;3.726;2022-07-11T07:45:38;25.40;55.10
70557;DHT22;58107;51.034;3.726;2022-07-11T07:48:05;25.30;55.20
70557;DHT22;58107;51.034;3.726;2022-07-11T07:50:33;25.40;54.90
70557;DHT22;58107;51.034;3.726;2022-07-11T07:53:01;25.70;53.90
70557;DHT22;58107;51.034;3.726;2022-07-11T07:55:28;25.90;51.30
70557;DHT22;58107;51.034;3.726;2022-07-11T07:57:56;26.10;51.10
70557;DHT22;58107;51.034;3.726;2022-07-11T08:00:23;26.20;51.60
70557;DHT22;58107;51.034;3.726;2022-07-11T08:03:09;26.20;51.50
70557;DHT22;58107;51.034;3.726;2022-07-11T08:05:37;25.70;51.60
70557;DHT22;58107;51.034;3.726;2022-07-11T08:08:05;26.10;50.40
70557;DHT22;58107;51.034;3.726;2022-07-11T08:10:33;26.20;49.90
70557;DHT22;58107;51.034;3.726;2022-07-11T08:13:02;26.20;50.40
70557;DHT22;58107;51.034;3.726;2022-07-11T08:15:30;26.30;50.40
70557;DHT22;58107;51.034;3.726;2022-07-11T08:17:57;26.70;50.40
70557;DHT22;58107;51.034;3.726;2022-07-11T08:20:25;26.90;49.80
70557;DHT22;58107;51.034;3.726;2022-07-11T08:22:58;27.20;49.50
70557;DHT22;58107;51.034;3.726;2022-07-11T08:25:22;27.30;47.90
70557;DHT22;58107;51.034;3.726;2022-07-11T08:27:50;27.60;48.10
70557;DHT22;58107;51.034;3.726;2022-07-11T08:30:17;27.70;47.50
70557;DHT22;58107;51.034;3.726;2022-07-11T08:32:46;27.70;47.30
70557;DHT22;58107;51.034;3.726;2022-07-11T08:35:14;27.80;47.40
70557;DHT22;58107;51.034;3.726;2022-07-11T08:37:43;27.90;47.10
70557;DHT22;58107;51.034;3.726;2022-07-11T08:40:11;27.90;45.60
70557;DHT22;58107;51.034;3.726;2022-07-11T08:42:43;27.70;45.60
70557;DHT22;58107;51.034;3.726;2022-07-11T08:45:15;27.60;46.10
70557;DHT22;58107;51.034;3.726;2022-07-11T08:47:44;27.90;45.00
70557;DHT22;58107;51.034;3.726;2022-07-11T08:50:12;27.90;44.80
70557;DHT22;58107;51.034;3.726;2022-07-11T08:52:40;27.90;45.20
70557;DHT22;58107;51.034;3.726;2022-07-11T08:55:08;28.00;44.30
70557;DHT22;58107;51.034;3.726;2022-07-11T08:57:37;28.00;45.50
70557;DHT22;58107;51.034;3.726;2022-07-11T09:00:07;28.10;45.50
70557;DHT22;58107;51.034;3.726;2022-07-11T09:02:36;28.10;45.90
70557;DHT22;58107;51.034;3.726;2022-07-11T09:05:04;27.80;45.70
70557;DHT22;58107;51.034;3.726;2022-07-11T09:07:46;28.50;44.20
70557;DHT22;58107;51.034;3.726;2022-07-11T09:10:15;28.90;42.30
70557;DHT22;58107;51.034;3.726;2022-07-11T09:13:08;28.70;42.60
70557;DHT22;58107;51.034;3.726;2022-07-11T09:15:42;28.90;42.80
70557;DHT22;58107;51.034;3.726;2022-07-11T09:18:31;29.00;42.90
70557;DHT22;58107;51.034;3.726;2022-07-11T09:21:07;29.20;42.20
70557;DHT22;58107;51.034;3.726;2022-07-11T09:23:54;29.50;41.60
70557;DHT22;58107;51.034;3.726;2022-07-11T09:26:42;29.80;40.60
70557;DHT22;58107;51.034;3.726;2022-07-11T09:29:15;30.20;40.30
70557;DHT22;58107;51.034;3.726;2022-07-11T09:31:45;30.30;39.70
70557;DHT22;58107;51.034;3.726;2022-07-11T09:34:15;30.50;39.50
70557;DHT22;58107;51.034;3.726;2022-07-11T09:36:48;30.20;39.80
70557;DHT22;58107;51.034;3.726;2022-07-11T09:39:22;29.70;40.60
70557;DHT22;58107;51.034;3.726;2022-07-11T09:41:51;29.70;40.60
70557;DHT22;58107;51.034;3.726;2022-07-11T09:44:24;29.50;40.60
70557;DHT22;58107;51.034;3.726;2022-07-11T09:46:54;29.50;40.90
70557;DHT22;58107;51.034;3.726;2022-07-11T09:49:36;29.40;41.30
70557;DHT22;58107;51.034;3.726;2022-07-11T09:52:15;29.60;41.20
70557;DHT22;58107;51.034;3.726;2022-07-11T09:55:00;30.10;40.70
70557;DHT22;58107;51.034;3.726;2022-07-11T09:57:33;30.30;39.20
70557;DHT22;58107;51.034;3.726;2022-07-11T10:00:04;30.30;39.10
70557;DHT22;58107;51.034;3.726;2022-07-11T10:02:31;30.40;38.90
70557;DHT22;58107;51.034;3.726;2022-07-11T10:05:00;30.60;38.60
70557;DHT22;58107;51.034;3.726;2022-07-11T10:07:29;30.60;38.70
70557;DHT22;58107;51.034;3.726;2022-07-11T10:10:00;30.60;38.70
70557;DHT22;58107;51.034;3.726;2022-07-11T10:12:28;30.20;39.30
70557;DHT22;58107;51.034;3.726;2022-07-11T10:15:00;29.80;40.50
70557;DHT22;58107;51.034;3.726;2022-07-11T10:20:11;28.30;43.80
70557;DHT22;58107;51.034;3.726;2022-07-11T10:22:41;27.90;45.70
70557;DHT22;58107;51.034;3.726;2022-07-11T10:25:21;27.80;44.30
70557;DHT22;58107;51.034;3.726;2022-07-11T10:30:50;27.40;45.60
70557;DHT22;58107;51.034;3.726;2022-07-11T10:33:17;27.30;46.00
70557;DHT22;58107;51.034;3.726;2022-07-11T10:35:48;27.70;45.10
70557;DHT22;58107;51.034;3.726;2022-07-11T10:38:18;27.90;42.50
70557;DHT22;58107;51.034;3.726;2022-07-11T10:40:48;28.50;41.30
70557;DHT22;58107;51.034;3.726;2022-07-11T10:46:02;29.90;39.30
70557;DHT22;58107;51.034;3.726;2022-07-11T10:48:32;30.20;39.00
70557;DHT22;58107;51.034;3.726;2022-07-11T10:53:50;30.80;37.50
70557;DHT22;58107;51.034;3.726;2022-07-11T10:56:45;31.30;35.90
70557;DHT22;58107;51.034;3.726;2022-07-11T10:59:13;31.30;35.90
70557;DHT22;58107;51.034;3.726;2022-07-11T11:04:43;31.10;35.70
70557;DHT22;58107;51.034;3.726;2022-07-11T11:07:40;31.60;35.10
70557;DHT22;58107;51.034;3.726;2022-07-11T11:10:07;31.60;34.70
70557;DHT22;58107;51.034;3.726;2022-07-11T11:15:42;31.60;35.00
70557;DHT22;58107;51.034;3.726;2022-07-11T11:23:37;32.10;34.60
70557;DHT22;58107;51.034;3.726;2022-07-11T11:26:08;32.20;32.90
70557;DHT22;58107;51.034;3.726;2022-07-11T11:28:37;32.60;33.10
70557;DHT22;58107;51.034;3.726;2022-07-11T11:31:06;32.00;33.10
70557;DHT22;58107;51.034;3.726;2022-07-11T11:33:36;32.40;33.20
70557;DHT22;58107;51.034;3.726;2022-07-11T11:36:09;32.90;32.30
70557;DHT22;58107;51.034;3.726;2022-07-11T11:38:39;32.80;32.40
70557;DHT22;58107;51.034;3.726;2022-07-11T11:41:08;33.00;32.00
70557;DHT22;58107;51.034;3.726;2022-07-11T11:43:36;33.60;31.30
70557;DHT22;58107;51.034;3.726;2022-07-11T11:46:07;33.80;30.30
70557;DHT22;58107;51.034;3.726;2022-07-11T11:48:38;34.80;29.60
70557;DHT22;58107;51.034;3.726;2022-07-11T11:51:10;35.70;28.30
70557;DHT22;58107;51.034;3.726;2022-07-11T11:53:42;35.50;27.60
70557;DHT22;58107;51.034;3.726;2022-07-11T11:56:28;35.20;27.00
70557;DHT22;58107;51.034;3.726;2022-07-11T11:59:00;35.90;26.10
70557;DHT22;58107;51.034;3.726;2022-07-11T12:01:34;35.90;27.30
70557;DHT22;58107;51.034;3.726;2022-07-11T12:04:00;36.50;27.40
70557;DHT22;58107;51.034;3.726;2022-07-11T12:06:30;36.20;26.80
70557;DHT22;58107;51.034;3.726;2022-07-11T12:09:06;35.00;28.30
70557;DHT22;58107;51.034;3.726;2022-07-11T12:11:54;35.00;28.80
70557;DHT22;58107;51.034;3.726;2022-07-11T12:14:39;35.70;27.50
70557;DHT22;58107;51.034;3.726;2022-07-11T12:17:07;35.00;27.50
70557;DHT22;58107;51.034;3.726;2022-07-11T12:19:35;35.40;28.00
70557;DHT22;58107;51.034;3.726;2022-07-11T12:22:05;35.10;27.90
70557;DHT22;58107;51.034;3.726;2022-07-11T12:24:33;35.90;27.40
70557;DHT22;58107;51.034;3.726;2022-07-11T12:27:01;36.90;26.20
70557;DHT22;58107;51.034;3.726;2022-07-11T12:29:30;37.10;25.90
70557;DHT22;58107;51.034;3.726;2022-07-11T12:32:01;36.40;26.70
70557;DHT22;58107;51.034;3.726;2022-07-11T12:37:04;35.50;27.80
70557;DHT22;58107;51.034;3.726;2022-07-11T12:39:34;37.20;26.10
70557;DHT22;58107;51.034;3.726;2022-07-11T12:42:20;37.10;25.70
70557;DHT22;58107;51.034;3.726;2022-07-11T12:44:32;36.30;26.50
70557;DHT22;58107;51.034;3.726;2022-07-11T12:47:23;36.00;26.80
70557;DHT22;58107;51.034;3.726;2022-07-11T12:49:49;37.50;25.40
70557;DHT22;58107;51.034;3.726;2022-07-11T12:52:18;38.30;24.30
70557;DHT22;58107;51.034;3.726;2022-07-11T12:54:46;37.50;24.70
70557;DHT22;58107;51.034;3.726;2022-07-11T12:57:20;37.40;24.90
70557;DHT22;58107;51.034;3.726;2022-07-11T12:59:46;38.00;22.60
70557;DHT22;58107;51.034;3.726;2022-07-11T13:02:15;37.60;23.10
70557;DHT22;58107;51.034;3.726;2022-07-11T13:04:48;38.10;23.00
70557;DHT22;58107;51.034;3.726;2022-07-11T13:07:30;38.20;23.70
70557;DHT22;58107;51.034;3.726;2022-07-11T13:10:25;40.10;22.60
70557;DHT22;58107;51.034;3.726;2022-07-11T13:12:51;41.40;21.60
70557;DHT22;58107;51.034;3.726;2022-07-11T13:15:20;41.70;21.30
70557;DHT22;58107;51.034;3.726;2022-07-11T13:17:51;42.10;20.70
70557;DHT22;58107;51.034;3.726;2022-07-11T13:20:23;42.10;20.70
70557;DHT22;58107;51.034;3.726;2022-07-11T13:22:53;41.60;21.20
70557;DHT22;58107;51.034;3.726;2022-07-11T13:25:22;41.30;21.40
70557;DHT22;58107;51.034;3.726;2022-07-11T13:27:50;40.90;21.70
70557;DHT22;58107;51.034;3.726;2022-07-11T13:30:18;41.80;21.00
70557;DHT22;58107;51.034;3.726;2022-07-11T13:32:48;41.70;21.40
70557;DHT22;58107;51.034;3.726;2022-07-11T13:35:18;40.70;21.50
70557;DHT22;58107;51.034;3.726;2022-07-11T13:37:47;39.60;23.20
70557;DHT22;58107;51.034;3.726;2022-07-11T13:40:17;40.50;22.50
70557;DHT22;58107;51.034;3.726;2022-07-11T13:42:45;40.20;22.90
70557;DHT22;58107;51.034;3.726;2022-07-11T13:45:13;39.80;23.00
70557;DHT22;58107;51.034;3.726;2022-07-11T13:47:41;39.50;23.50
70557;DHT22;58107;51.034;3.726;2022-07-11T13:50:09;40.80;22.30
70557;DHT22;58107;51.034;3.726;2022-07-11T13:52:37;40.70;22.40
70557;DHT22;58107;51.034;3.726;2022-07-11T13:57:56;42.50;20.90
70557;DHT22;58107;51.034;3.726;2022-07-11T14:00:25;40.90;22.00
70557;DHT22;58107;51.034;3.726;2022-07-11T14:03:12;41.10;22.20
70557;DHT22;58107;51.034;3.726;2022-07-11T14:05:40;42.50;21.40
70557;DHT22;58107;51.034;3.726;2022-07-11T14:08:08;41.20;21.80
70557;DHT22;58107;51.034;3.726;2022-07-11T14:10:37;40.30;22.90
70557;DHT22;58107;51.034;3.726;2022-07-11T14:13:06;39.70;23.70
70557;DHT22;58107;51.034;3.726;2022-07-11T14:15:34;40.80;22.20
70557;DHT22;58107;51.034;3.726;2022-07-11T14:18:02;39.90;23.10
70557;DHT22;58107;51.034;3.726;2022-07-11T14:20:30;39.80;23.10
70557;DHT22;58107;51.034;3.726;2022-07-11T14:22:57;39.20;23.40
70557;DHT22;58107;51.034;3.726;2022-07-11T14:25:25;37.60;24.90
70557;DHT22;58107;51.034;3.726;2022-07-11T14:27:52;36.80;26.20
70557;DHT22;58107;51.034;3.726;2022-07-11T14:30:20;36.60;26.10
70557;DHT22;58107;51.034;3.726;2022-07-11T14:32:48;36.70;26.10
70557;DHT22;58107;51.034;3.726;2022-07-11T14:35:18;37.80;25.20
70557;DHT22;58107;51.034;3.726;2022-07-11T14:37:46;38.90;24.10
70557;DHT22;58107;51.034;3.726;2022-07-11T14:40:13;39.70;23.00
70557;DHT22;58107;51.034;3.726;2022-07-11T14:42:41;39.50;23.20
70557;DHT22;58107;51.034;3.726;2022-07-11T14:45:10;38.90;23.70
70557;DHT22;58107;51.034;3.726;2022-07-11T14:47:37;38.80;23.90
70557;DHT22;58107;51.034;3.726;2022-07-11T14:50:07;38.00;24.90
70557;DHT22;58107;51.034;3.726;2022-07-11T14:52:35;37.30;25.30
70557;DHT22;58107;51.034;3.726;2022-07-11T14:55:04;36.70;25.60
70557;DHT22;58107;51.034;3.726;2022-07-11T14:57:32;35.40;27.30
70557;DHT22;58107;51.034;3.726;2022-07-11T15:00:00;33.90;29.20
70557;DHT22;58107;51.034;3.726;2022-07-11T15:02:27;32.90;30.80
70557;DHT22;58107;51.034;3.726;2022-07-11T15:05:13;32.20;32.10
70557;DHT22;58107;51.034;3.726;2022-07-11T15:07:41;31.60;32.90
70557;DHT22;58107;51.034;3.726;2022-07-11T15:10:26;31.40;33.30
70557;DHT22;58107;51.034;3.726;2022-07-11T15:13:12;31.10;33.80
70557;DHT22;58107;51.034;3.726;2022-07-11T15:15:40;30.60;35.30
70557;DHT22;58107;51.034;3.726;2022-07-11T15:18:07;30.20;36.00
70557;DHT22;58107;51.034;3.726;2022-07-11T15:20:36;30.10;36.10
70557;DHT22;58107;51.034;3.726;2022-07-11T15:23:03;30.00;36.00
70557;DHT22;58107;51.034;3.726;2022-07-11T15:25:32;29.90;36.10
70557;DHT22;58107;51.034;3.726;2022-07-11T15:27:59;29.60;36.70
70557;DHT22;58107;51.034;3.726;2022-07-11T15:30:27;29.60;36.90
70557;DHT22;58107;51.034;3.726;2022-07-11T15:32:55;29.70;36.70
70557;DHT22;58107;51.034;3.726;2022-07-11T15:35:22;30.00;36.30
70557;DHT22;58107;51.034;3.726;2022-07-11T15:37:50;29.90;36.10
70557;DHT22;58107;51.034;3.726;2022-07-11T15:40:18;29.80;36.00
70557;DHT22;58107;51.034;3.726;2022-07-11T15:42:45;29.80;36.40
70557;DHT22;58107;51.034;3.726;2022-07-11T15:45:13;30.00;36.10
70557;DHT22;58107;51.034;3.726;2022-07-11T15:47:41;30.10;36.00
70557;DHT22;58107;51.034;3.726;2022-07-11T15:50:09;29.70;36.20
70557;DHT22;58107;51.034;3.726;2022-07-11T15:52:37;29.50;36.80
70557;DHT22;58107;51.034;3.726;2022-07-11T15:55:05;29.40;36.70
70557;DHT22;58107;51.034;3.726;2022-07-11T15:57:33;29.50;36.80
70557;DHT22;58107;51.034;3.726;2022-07-11T16:00:01;29.70;36.30
70557;DHT22;58107;51.034;3.726;2022-07-11T16:02:30;29.90;35.50
70557;DHT22;58107;51.034;3.726;2022-07-11T16:04:58;30.00;35.50
70557;DHT22;58107;51.034;3.726;2022-07-11T16:07:26;29.90;35.20
70557;DHT22;58107;51.034;3.726;2022-07-11T16:09:54;29.80;35.20
70557;DHT22;58107;51.034;3.726;2022-07-11T16:12:22;29.80;34.90
70557;DHT22;58107;51.034;3.726;2022-07-11T16:14:50;29.80;34.80